Terminal Aerodrome Forecast
Issued by NWS

Current Version | Previous Version | Text Only | Print | Product List | Glossary On
Versions: 1 2 3 4 5 6 7 8 9 10 11 12 13 14 15 16 17 18 19 20 21 22 23 24
000
FTUS41 KOKX 031720
TAFHPN
TAF
KHPN 031720Z 0318/0418 19011KT P6SM SCT040 SCT100
     FM040100 20006KT P6SM VCTS SCT040CB BKN100
     FM040600 VRB05KT 6SM BR SCT040 BKN100
     FM041600 25008KT P6SM SCT040 SCT100
      AMD NOT SKED=

USA.gov is the U.S. government's official web portal to all federal, state and local government web resources and services.